Time;durP1;ratioP1;P1;durP2;ratioP2;P2;SDS_P1;SDS_P2;PMS_P1;PMS_P2;Temp;Humidity;BMP_temperature;BMP_pressure;BME280_temperature;BME280_humidity;BME280_pressure;Samples;Min_cycle;Max_cycle;Signal;HPM_P1;HPM_P2
2024/03/04 00:01:36;;;;;;;21.48;10.88;;;;;;;;;;5055051;28;20060;-65
2024/03/04 00:04:03;;;;;;;22.23;9.85;;;;;;;;;;5035532;28;20060;-66
2024/03/04 00:06:30;;;;;;;28.48;11.70;;;;;;;;;;5038013;28;20071;-65
2024/03/04 00:08:56;;;;;;;23.88;10.77;;;;;;;;;;5039913;28;20212;-66
2024/03/04 00:11:24;;;;;;;27.35;9.60;;;;;;;;;;5032534;28;20064;-65
2024/03/04 00:13:51;;;;;;;20.35;9.07;;;;;;;;;;5016882;28;20085;-65
2024/03/04 00:16:18;;;;;;;27.70;10.23;;;;;;;;;;5043263;28;20049;-66
2024/03/04 00:18:44;;;;;;;20.17;7.40;;;;;;;;;;5026635;28;20182;-66
2024/03/04 00:21:15;;;;;;;22.80;8.68;;;;;;;;;;5025606;28;20493;-67
2024/03/04 00:23:41;;;;;;;16.50;4.75;;;;;;;;;;5024046;28;20093;-66
2024/03/04 00:26:09;;;;;;;28.17;8.88;;;;;;;;;;5040292;28;20078;-66
2024/03/04 00:28:37;;;;;;;19.33;9.05;;;;;;;;;;5044093;28;20095;-66
2024/03/04 00:31:06;;;;;;;24.45;8.25;;;;;;;;;;5040090;28;20119;-66
2024/03/04 00:33:32;;;;;;;19.00;8.57;;;;;;;;;;5019010;28;20149;-66
2024/03/04 00:35:59;;;;;;;23.63;8.63;;;;;;;;;;5023838;28;20439;-67
2024/03/04 00:38:26;;;;;;;20.08;7.85;;;;;;;;;;5026960;28;20053;-66
2024/03/04 00:40:53;;;;;;;19.63;8.45;;;;;;;;;;5040994;28;20049;-65
2024/03/04 00:43:20;;;;;;;17.67;7.57;;;;;;;;;;5033946;28;20238;-67
2024/03/04 00:45:48;;;;;;;14.52;6.93;;;;;;;;;;5024468;28;20216;-66
2024/03/04 00:48:15;;;;;;;18.45;7.68;;;;;;;;;;5027540;28;20052;-66
2024/03/04 00:50:42;;;;;;;16.35;6.18;;;;;;;;;;5022752;28;20476;-67
2024/03/04 00:53:11;;;;;;;21.67;8.30;;;;;;;;;;5029419;28;20053;-65
2024/03/04 00:55:37;;;;;;;18.17;6.20;;;;;;;;;;5021994;28;20056;-66
2024/03/04 00:58:04;;;;;;;15.63;6.97;;;;;;;;;;5027070;28;20076;-66
2024/03/04 01:00:32;;;;;;;17.05;6.95;;;;;;;;;;5028789;28;20167;-66
2024/03/04 01:03:00;;;;;;;9.50;3.95;;;;;;;;;;5037091;28;20053;-67
2024/03/04 01:05:27;;;;;;;17.55;6.30;;;;;;;;;;5020838;28;20441;-67
2024/03/04 01:07:53;;;;;;;20.42;6.88;;;;;;;;;;5046267;28;20132;-66
2024/03/04 01:10:21;;;;;;;15.57;5.80;;;;;;;;;;5029080;28;20053;-67
2024/03/04 01:12:49;;;;;;;19.10;6.47;;;;;;;;;;5020610;28;20056;-67
2024/03/04 01:15:19;;;;;;;14.13;6.13;;;;;;;;;;5023181;28;20068;-66
2024/03/04 01:17:46;;;;;;;17.48;6.40;;;;;;;;;;5045472;28;20059;-66
2024/03/04 01:20:14;;;;;;;15.45;5.20;;;;;;;;;;5033472;28;20041;-67
2024/03/04 01:22:41;;;;;;;24.42;6.03;;;;;;;;;;5025245;28;20057;-66
2024/03/04 01:25:09;;;;;;;15.30;5.32;;;;;;;;;;5024287;28;20198;-68
2024/03/04 01:27:37;;;;;;;16.73;5.50;;;;;;;;;;5030544;28;20080;-65
2024/03/04 01:30:09;;;;;;;13.07;4.47;;;;;;;;;;5028396;28;20102;-67
2024/03/04 01:32:36;;;;;;;13.43;5.40;;;;;;;;;;5044231;28;20061;-67
2024/03/04 01:35:07;;;;;;;13.35;5.38;;;;;;;;;;5044296;28;20041;-66
2024/03/04 01:37:35;;;;;;;12.57;4.30;;;;;;;;;;5026424;28;20060;-67
2024/03/04 01:40:03;;;;;;;11.48;4.47;;;;;;;;;;5045540;28;20057;-68
2024/03/04 01:42:29;;;;;;;11.77;4.30;;;;;;;;;;5028603;28;20052;-67
2024/03/04 01:44:56;;;;;;;10.32;4.03;;;;;;;;;;5025536;28;20271;-66
2024/03/04 01:47:24;;;;;;;12.63;4.80;;;;;;;;;;5021282;28;20547;-66
2024/03/04 01:49:52;;;;;;;14.90;5.53;;;;;;;;;;5030828;28;20049;-67
2024/03/04 01:52:19;;;;;;;10.90;4.57;;;;;;;;;;5030450;28;20049;-66
2024/03/04 01:54:50;;;;;;;8.68;3.03;;;;;;;;;;5028748;28;20771;-66
2024/03/04 01:57:17;;;;;;;6.88;3.00;;;;;;;;;;5023318;28;20070;-67
2024/03/04 01:59:46;;;;;;;14.00;4.80;;;;;;;;;;5044608;28;20060;-66
2024/03/04 02:02:13;;;;;;;;;;;;;;;;;;5041632;28;20327;-67
2024/03/04 02:04:41;;;;;;;12.68;4.70;;;;;;;;;;5015433;28;19924;-66
2024/03/04 02:07:08;;;;;;;13.85;4.25;;;;;;;;;;5028833;28;20057;-66
2024/03/04 02:09:38;;;;;;;19.15;6.22;;;;;;;;;;5027784;28;21048;-66
2024/03/04 02:12:06;;;;;;;12.30;4.68;;;;;;;;;;5026919;28;20065;-66
2024/03/04 02:14:33;;;;;;;12.65;4.50;;;;;;;;;;5026827;28;20130;-66
2024/03/04 02:17:00;;;;;;;11.07;4.20;;;;;;;;;;5029210;28;20053;-66
2024/03/04 02:19:27;;;;;;;13.07;4.50;;;;;;;;;;5022895;28;20320;-67
2024/03/04 02:22:01;;;;;;;16.48;5.28;;;;;;;;;;5028343;28;20083;-66
2024/03/04 02:24:29;;;;;;;14.40;5.32;;;;;;;;;;5012272;28;20059;-67
2024/03/04 02:26:56;;;;;;;13.38;5.38;;;;;;;;;;5006389;28;20115;-67
2024/03/04 02:29:23;;;;;;;12.02;4.57;;;;;;;;;;5017910;28;20178;-66
2024/03/04 02:31:50;;;;;;;14.52;5.57;;;;;;;;;;5008952;28;20123;-67
2024/03/04 02:34:17;;;;;;;16.98;5.70;;;;;;;;;;5007581;28;20061;-66
2024/03/04 02:36:44;;;;;;;18.35;7.35;;;;;;;;;;5012239;28;20158;-66
2024/03/04 02:39:15;;;;;;;16.33;6.03;;;;;;;;;;5005255;28;20150;-66
2024/03/04 02:41:43;;;;;;;13.68;5.63;;;;;;;;;;5007959;28;20057;-66
2024/03/04 02:44:12;;;;;;;16.40;6.40;;;;;;;;;;5008636;28;20061;-67
2024/03/04 02:46:40;;;;;;;16.35;5.82;;;;;;;;;;5027021;28;20052;-65
2024/03/04 02:49:07;;;;;;;19.27;5.40;;;;;;;;;;5025364;28;20054;-65
2024/03/04 02:51:36;;;;;;;13.88;4.75;;;;;;;;;;5026621;28;20092;-66
2024/03/04 02:54:03;;;;;;;18.75;5.90;;;;;;;;;;5023483;28;20060;-67
2024/03/04 02:56:30;;;;;;;13.50;5.93;;;;;;;;;;5026709;28;20119;-66
2024/03/04 02:58:58;;;;;;;13.23;5.18;;;;;;;;;;5027114;28;20401;-68
2024/03/04 03:01:26;;;;;;;12.55;5.15;;;;;;;;;;5029493;28;20310;-67
2024/03/04 03:03:53;;;;;;;20.27;5.85;;;;;;;;;;4972803;28;20504;-67
2024/03/04 03:06:20;;;;;;;16.73;5.88;;;;;;;;;;5016777;28;20068;-67
2024/03/04 03:08:49;;;;;;;13.82;5.35;;;;;;;;;;5009571;28;20108;-66
2024/03/04 03:11:16;;;;;;;14.00;5.30;;;;;;;;;;5008498;28;20400;-65
2024/03/04 03:13:46;;;;;;;13.50;5.63;;;;;;;;;;5005985;28;20184;-66
2024/03/04 03:16:19;;;;;;;12.75;4.93;;;;;;;;;;5007876;28;20053;-66
2024/03/04 03:18:47;;;;;;;12.68;4.57;;;;;;;;;;5008140;28;20049;-66
2024/03/04 03:21:15;;;;;;;13.88;4.90;;;;;;;;;;5008450;28;20057;-66
2024/03/04 03:23:43;;;;;;;9.38;3.67;;;;;;;;;;5004309;28;22573;-66
2024/03/04 03:26:10;;;;;;;13.80;4.37;;;;;;;;;;5025094;28;20052;-66
2024/03/04 03:28:38;;;;;;;13.05;4.90;;;;;;;;;;5029657;28;20127;-67
2024/03/04 03:31:05;;;;;;;9.53;3.77;;;;;;;;;;5030604;28;20065;-66
2024/03/04 03:33:33;;;;;;;12.40;4.43;;;;;;;;;;5013601;28;20060;-66
2024/03/04 03:36:00;;;;;;;12.48;4.70;;;;;;;;;;5022233;28;20656;-66
2024/03/04 03:38:26;;;;;;;14.50;3.95;;;;;;;;;;5043974;28;20061;-66
2024/03/04 03:40:53;;;;;;;10.27;3.47;;;;;;;;;;5027800;28;20099;-65
2024/03/04 03:43:20;;;;;;;9.20;3.20;;;;;;;;;;5027160;28;20584;-66
2024/03/04 03:45:49;;;;;;;12.48;3.60;;;;;;;;;;4981913;28;20076;-66
2024/03/04 03:48:17;;;;;;;9.68;3.33;;;;;;;;;;5029908;28;20162;-66
2024/03/04 03:50:46;;;;;;;9.13;2.58;;;;;;;;;;5033162;28;20052;-66
2024/03/04 03:53:13;;;;;;;8.90;3.40;;;;;;;;;;5033125;28;20139;-67
2024/03/04 03:55:40;;;;;;;8.40;3.58;;;;;;;;;;5008511;28;20507;-66
2024/03/04 03:58:07;;;;;;;7.32;3.35;;;;;;;;;;5025190;28;20054;-66
2024/03/04 04:00:34;;;;;;;10.10;3.60;;;;;;;;;;5029274;28;20053;-66
2024/03/04 04:03:01;;;;;;;9.48;3.30;;;;;;;;;;5031342;28;20134;-66
2024/03/04 04:05:28;;;;;;;10.25;4.28;;;;;;;;;;5006019;28;20057;-66
2024/03/04 04:07:57;;;;;;;12.45;4.35;;;;;;;;;;5020464;28;20476;-66
2024/03/04 04:10:24;;;;;;;9.50;3.97;;;;;;;;;;5013767;28;20935;-67
2024/03/04 04:12:51;;;;;;;17.80;4.32;;;;;;;;;;5012383;28;20172;-66
2024/03/04 04:15:18;;;;;;;11.50;4.13;;;;;;;;;;5019519;28;20096;-65
2024/03/04 04:17:45;;;;;;;12.48;4.03;;;;;;;;;;5027953;28;20056;-66
2024/03/04 04:20:12;;;;;;;12.63;4.18;;;;;;;;;;5031824;28;20065;-66
2024/03/04 04:22:40;;;;;;;8.52;3.83;;;;;;;;;;5030775;28;20049;-66
2024/03/04 04:25:10;;;;;;;12.32;3.90;;;;;;;;;;5018631;28;20912;-66
2024/03/04 04:27:40;;;;;;;10.73;4.13;;;;;;;;;;5029955;28;20061;-66
2024/03/04 04:30:09;;;;;;;9.93;4.07;;;;;;;;;;5031929;28;20080;-67
2024/03/04 04:32:36;;;;;;;12.80;4.40;;;;;;;;;;5032945;28;20995;-66
2024/03/04 04:35:05;;;;;;;11.95;4.75;;;;;;;;;;5015329;28;20063;-66
2024/03/04 04:37:32;;;;;;;11.80;4.75;;;;;;;;;;5029960;28;20132;-66
2024/03/04 04:39:58;;;;;;;13.55;4.93;;;;;;;;;;5024158;28;20045;-67
2024/03/04 04:42:27;;;;;;;15.13;4.65;;;;;;;;;;5030325;28;20260;-65
2024/03/04 04:44:54;;;;;;;12.20;4.70;;;;;;;;;;5032779;28;20152;-67
2024/03/04 04:47:23;;;;;;;10.85;4.72;;;;;;;;;;5047331;28;20052;-65
2024/03/04 04:49:49;;;;;;;;;;;;;;;;;;5043797;28;20067;-67
2024/03/04 04:52:16;;;;;;;11.30;4.05;;;;;;;;;;5046915;28;20754;-66
2024/03/04 04:54:44;;;;;;;7.85;3.65;;;;;;;;;;5026509;28;20138;-66
2024/03/04 04:57:11;;;;;;;9.10;3.80;;;;;;;;;;5029564;28;20495;-66
2024/03/04 04:59:41;;;;;;;11.60;3.65;;;;;;;;;;5029557;28;20065;-66
2024/03/04 05:02:08;;;;;;;10.63;3.15;;;;;;;;;;5043216;28;20114;-66
2024/03/04 05:04:38;;;;;;;7.70;3.30;;;;;;;;;;5042784;28;20065;-66
2024/03/04 05:07:05;;;;;;;7.15;2.90;;;;;;;;;;5030914;28;20048;-66
2024/03/04 05:09:31;;;;;;;10.45;3.45;;;;;;;;;;5031068;28;20068;-66
2024/03/04 05:11:58;;;;;;;7.72;3.13;;;;;;;;;;5024371;28;20049;-66
2024/03/04 05:14:24;;;;;;;7.63;2.95;;;;;;;;;;5024753;28;20064;-66
2024/03/04 05:16:52;;;;;;;10.13;2.92;;;;;;;;;;5031739;28;20398;-66
2024/03/04 05:19:21;;;;;;;10.35;3.08;;;;;;;;;;5047532;28;20065;-66
2024/03/04 05:21:50;;;;;;;;;;;;;;;;;;5029304;28;20085;-66
2024/03/04 05:24:17;;;;;;;7.43;2.60;;;;;;;;;;5026824;28;19979;-66
2024/03/04 05:26:44;;;;;;;5.65;2.80;;;;;;;;;;5027936;28;20064;-66
2024/03/04 05:29:13;;;;;;;7.50;2.90;;;;;;;;;;5046020;28;20061;-66
2024/03/04 05:31:57;;;;;;;7.10;2.80;;;;;;;;;;5042030;28;20478;-67
2024/03/04 05:34:24;;;;;;;10.10;2.83;;;;;;;;;;5039846;28;21302;-66
2024/03/04 05:36:51;;;;;;;8.57;3.55;;;;;;;;;;5045861;28;20052;-66
2024/03/04 05:39:20;;;;;;;16.77;6.90;;;;;;;;;;5045282;28;20067;-66
2024/03/04 05:41:50;;;;;;;7.32;2.75;;;;;;;;;;5027710;28;20073;-66
2024/03/04 05:44:17;;;;;;;6.35;2.55;;;;;;;;;;5043033;28;20060;-67
2024/03/04 05:46:44;;;;;;;4.75;2.03;;;;;;;;;;5026058;28;20072;-67
2024/03/04 05:49:13;;;;;;;4.25;1.95;;;;;;;;;;5027628;28;20057;-66
2024/03/04 05:51:43;;;;;;;6.32;2.33;;;;;;;;;;5025024;28;20144;-66
2024/03/04 05:54:10;;;;;;;6.20;2.33;;;;;;;;;;5007690;28;20181;-67
2024/03/04 05:56:41;;;;;;;4.65;1.95;;;;;;;;;;5025289;28;20069;-66
2024/03/04 05:59:09;;;;;;;2.97;1.70;;;;;;;;;;5044331;28;20149;-67
2024/03/04 06:01:35;;;;;;;7.90;2.30;;;;;;;;;;5042974;28;20057;-66
2024/03/04 06:04:02;;;;;;;6.25;2.15;;;;;;;;;;5029387;28;20060;-67
2024/03/04 06:06:29;;;;;;;11.23;2.30;;;;;;;;;;5027330;28;20130;-67
2024/03/04 06:08:58;;;;;;;13.07;4.38;;;;;;;;;;5029235;28;20397;-65
2024/03/04 06:11:27;;;;;;;;;;;;;;;;;;5028097;28;20111;-66
2024/03/04 06:13:54;;;;;;;4.30;1.88;;;;;;;;;;5027549;28;20014;-66
2024/03/04 06:16:21;;;;;;;5.45;2.00;;;;;;;;;;5039645;28;20052;-66
2024/03/04 06:18:48;;;;;;;7.88;2.33;;;;;;;;;;5028633;28;20080;-66
2024/03/04 06:21:18;;;;;;;4.45;1.73;;;;;;;;;;5042797;28;20522;-66
2024/03/04 06:23:48;;;;;;;5.78;1.75;;;;;;;;;;4988775;28;20118;-67
2024/03/04 06:26:18;;;;;;;9.80;2.45;;;;;;;;;;5013256;28;20061;-66
2024/03/04 06:28:45;;;;;;;4.60;1.92;;;;;;;;;;5028209;28;21016;-66
2024/03/04 06:31:12;;;;;;;19.20;7.10;;;;;;;;;;5043883;28;20049;-66
2024/03/04 06:33:40;;;;;;;11.82;3.53;;;;;;;;;;5028499;28;20056;-65
2024/03/04 06:36:08;;;;;;;6.53;2.47;;;;;;;;;;5021305;28;20057;-66
2024/03/04 06:38:35;;;;;;;6.45;2.30;;;;;;;;;;5028231;28;20527;-66
2024/03/04 06:41:12;;;;;;;6.93;2.17;;;;;;;;;;5026899;28;20111;-66
2024/03/04 06:43:43;;;;;;;6.65;2.03;;;;;;;;;;5024757;28;20134;-66
2024/03/04 06:46:11;;;;;;;5.53;2.55;;;;;;;;;;5022736;28;20603;-66
2024/03/04 06:48:38;;;;;;;5.93;2.30;;;;;;;;;;5026588;28;20053;-67
2024/03/04 06:51:05;;;;;;;8.05;2.63;;;;;;;;;;5028345;28;20065;-66
2024/03/04 06:53:32;;;;;;;6.70;2.45;;;;;;;;;;5028628;28;20050;-67
2024/03/04 06:56:01;;;;;;;6.22;2.22;;;;;;;;;;4949929;28;20167;-66
2024/03/04 06:58:30;;;;;;;5.38;2.28;;;;;;;;;;5028926;28;20080;-66
2024/03/04 07:00:56;;;;;;;7.18;2.45;;;;;;;;;;5045209;28;20068;-66
2024/03/04 07:03:23;;;;;;;6.10;2.25;;;;;;;;;;5028038;28;20441;-66
2024/03/04 07:05:50;;;;;;;7.88;2.40;;;;;;;;;;5005274;28;20080;-66
2024/03/04 07:08:17;;;;;;;6.10;2.45;;;;;;;;;;5025544;28;21051;-66
2024/03/04 07:10:46;;;;;;;6.80;2.20;;;;;;;;;;5023712;28;20060;-66
2024/03/04 07:13:12;;;;;;;9.43;1.98;;;;;;;;;;5010086;28;20136;-66
2024/03/04 07:15:44;;;;;;;5.18;1.70;;;;;;;;;;5021150;28;20065;-65
2024/03/04 07:18:11;;;;;;;5.13;1.55;;;;;;;;;;5028029;28;20076;-66
2024/03/04 07:20:38;;;;;;;4.25;1.65;;;;;;;;;;5025354;28;20127;-65
2024/03/04 07:23:08;;;;;;;7.07;1.73;;;;;;;;;;5030347;28;20057;-66
2024/03/04 07:25:35;;;;;;;5.50;1.65;;;;;;;;;;5018634;28;20064;-65
2024/03/04 07:28:03;;;;;;;3.35;1.67;;;;;;;;;;5005576;28;20910;-66
2024/03/04 07:30:34;;;;;;;4.78;1.45;;;;;;;;;;5013349;28;20069;-66
2024/03/04 07:33:03;;;;;;;4.40;1.92;;;;;;;;;;5027836;28;20057;-65
2024/03/04 07:35:30;;;;;;;4.50;1.20;;;;;;;;;;4958892;28;20157;-66
2024/03/04 07:37:58;;;;;;;3.10;1.33;;;;;;;;;;5017551;28;20057;-64
2024/03/04 07:40:25;;;;;;;7.00;1.65;;;;;;;;;;5013194;28;20092;-66
2024/03/04 07:42:52;;;;;;;4.35;1.60;;;;;;;;;;5028516;28;20064;-66
2024/03/04 07:45:19;;;;;;;3.10;1.40;;;;;;;;;;4994096;28;20133;-66
2024/03/04 07:47:45;;;;;;;6.15;1.90;;;;;;;;;;5014205;28;20152;-65
2024/03/04 07:50:14;;;;;;;7.43;2.50;;;;;;;;;;5009169;28;20053;-66
2024/03/04 07:52:42;;;;;;;6.70;2.15;;;;;;;;;;5027878;28;20650;-66
2024/03/04 07:55:11;;;;;;;;;;;;;;;;;;5017461;28;20210;-66
2024/03/04 07:57:40;;;;;;;6.35;2.15;;;;;;;;;;5031321;28;19929;-67
2024/03/04 08:00:14;;;;;;;6.63;2.53;;;;;;;;;;5028881;28;21790;-65
2024/03/04 08:02:42;;;;;;;3.83;1.55;;;;;;;;;;5045847;28;20064;-65
2024/03/04 08:05:09;;;;;;;8.85;2.38;;;;;;;;;;5043563;28;20061;-65
2024/03/04 08:07:37;;;;;;;6.65;2.90;;;;;;;;;;5031766;28;20061;-66
2024/03/04 08:10:11;;;;;;;8.02;3.03;;;;;;;;;;5043451;28;20060;-68
2024/03/04 08:12:40;;;;;;;7.07;2.45;;;;;;;;;;5031017;28;20151;-66
2024/03/04 08:15:09;;;;;;;13.48;3.53;;;;;;;;;;5025072;28;20053;-64
2024/03/04 08:17:36;;;;;;;9.38;2.20;;;;;;;;;;5028023;28;20048;-66
2024/03/04 08:20:09;;;;;;;5.63;1.88;;;;;;;;;;5028565;28;20879;-68
2024/03/04 08:22:40;;;;;;;4.07;1.60;;;;;;;;;;5029617;28;20061;-70
2024/03/04 08:25:07;;;;;;;6.93;1.80;;;;;;;;;;4984058;28;20061;-67
2024/03/04 08:27:34;;;;;;;5.90;1.90;;;;;;;;;;5035263;28;20061;-66
2024/03/04 08:30:11;;;;;;;;;;;;;;;;;;;;;
2024/03/04 08:32:39;;;;;;;6.27;1.93;;;;;;;;;;5030626;28;20077;-68
2024/03/04 08:35:08;;;;;;;10.80;2.75;;;;;;;;;;5015261;28;20122;-66
2024/03/04 08:37:35;;;;;;;9.38;2.47;;;;;;;;;;5047487;28;21017;-66
2024/03/04 08:40:08;;;;;;;5.70;2.50;;;;;;;;;;5027367;28;20428;-66
2024/03/04 08:42:36;;;;;;;3.08;1.33;;;;;;;;;;5030008;28;20053;-66
2024/03/04 08:45:07;;;;;;;6.07;2.13;;;;;;;;;;5007597;28;20518;-66
2024/03/04 08:47:34;;;;;;;6.07;2.55;;;;;;;;;;5045695;28;20075;-67
2024/03/04 08:50:01;;;;;;;5.05;1.80;;;;;;;;;;5027034;28;20156;-67
2024/03/04 08:52:29;;;;;;;3.20;1.52;;;;;;;;;;5031335;28;20053;-66
2024/03/04 08:54:56;;;;;;;3.17;1.48;;;;;;;;;;5013777;28;20061;-66
2024/03/04 08:57:24;;;;;;;4.80;1.40;;;;;;;;;;5046048;28;20052;-66
2024/03/04 08:59:51;;;;;;;4.90;1.60;;;;;;;;;;5025531;28;21141;-68
2024/03/04 09:02:18;;;;;;;5.45;1.50;;;;;;;;;;5032226;28;20168;-67
2024/03/04 09:04:47;;;;;;;7.57;1.95;;;;;;;;;;5026999;28;20094;-67
2024/03/04 09:07:15;;;;;;;7.95;2.15;;;;;;;;;;5029336;28;20080;-67
2024/03/04 09:09:42;;;;;;;4.38;1.20;;;;;;;;;;5030033;28;20069;-67
2024/03/04 09:12:11;;;;;;;4.05;1.27;;;;;;;;;;5030384;28;20059;-67
2024/03/04 09:14:42;;;;;;;2.97;0.95;;;;;;;;;;5027430;28;20558;-67
2024/03/04 09:17:09;;;;;;;2.78;1.10;;;;;;;;;;5030599;28;20076;-68
2024/03/04 09:19:39;;;;;;;3.33;1.08;;;;;;;;;;5044585;28;20051;-66
2024/03/04 09:22:06;;;;;;;3.80;1.20;;;;;;;;;;5027385;28;20347;-66
2024/03/04 09:24:35;;;;;;;5.38;0.90;;;;;;;;;;5018110;28;20064;-67
2024/03/04 09:27:02;;;;;;;2.50;0.70;;;;;;;;;;5046683;28;20056;-67
2024/03/04 09:29:29;;;;;;;3.83;0.77;;;;;;;;;;5029123;28;20071;-67
2024/03/04 09:31:57;;;;;;;4.68;1.10;;;;;;;;;;5041520;28;20053;-66
2024/03/04 09:34:24;;;;;;;3.75;1.00;;;;;;;;;;5011297;28;20064;-67
2024/03/04 09:36:51;;;;;;;1.73;0.70;;;;;;;;;;5030310;28;20044;-66
2024/03/04 09:39:21;;;;;;;1.83;0.75;;;;;;;;;;5047412;28;20109;-66
2024/03/04 09:41:52;;;;;;;4.35;1.58;;;;;;;;;;5028127;28;20154;-67
2024/03/04 09:44:20;;;;;;;5.10;2.00;;;;;;;;;;5005596;28;20057;-67
2024/03/04 09:46:49;;;;;;;2.40;0.98;;;;;;;;;;5020821;28;20158;-67
2024/03/04 09:49:18;;;;;;;1.75;0.70;;;;;;;;;;5030031;28;20176;-67
2024/03/04 09:51:52;;;;;;;3.85;0.70;;;;;;;;;;5025962;28;20129;-68
2024/03/04 09:54:21;;;;;;;2.85;0.98;;;;;;;;;;5043166;28;20056;-67
2024/03/04 09:56:48;;;;;;;2.00;0.63;;;;;;;;;;5016086;28;20106;-66
2024/03/04 09:59:15;;;;;;;4.60;0.80;;;;;;;;;;5011342;28;20057;-66
2024/03/04 10:01:42;;;;;;;2.75;0.63;;;;;;;;;;5005818;28;20130;-67
2024/03/04 10:04:12;;;;;;;3.20;0.70;;;;;;;;;;5005046;28;20110;-67
2024/03/04 10:06:42;;;;;;;0.70;0.50;;;;;;;;;;5034736;28;20059;-67
2024/03/04 10:09:12;;;;;;;6.95;1.00;;;;;;;;;;5027877;28;20060;-66
2024/03/04 10:11:40;;;;;;;1.85;0.50;;;;;;;;;;5031257;28;20061;-66
2024/03/04 10:14:08;;;;;;;4.03;0.70;;;;;;;;;;5023770;28;20113;-66
2024/03/04 10:16:36;;;;;;;1.38;0.57;;;;;;;;;;5003613;28;20057;-66
2024/03/04 10:19:07;;;;;;;1.98;0.93;;;;;;;;;;5030964;28;20064;-66
2024/03/04 10:21:36;;;;;;;1.48;0.55;;;;;;;;;;5026793;28;20059;-66
2024/03/04 10:24:10;;;;;;;1.48;0.65;;;;;;;;;;5018908;28;20458;-67
2024/03/04 10:26:41;;;;;;;1.17;0.50;;;;;;;;;;5006264;28;20049;-66
2024/03/04 10:29:08;;;;;;;1.95;0.70;;;;;;;;;;5029089;28;20175;-66
2024/03/04 10:31:37;;;;;;;1.50;0.65;;;;;;;;;;5027383;28;20123;-66
2024/03/04 10:34:03;;;;;;;;;;;;;;;;;;5018785;28;20122;-68
2024/03/04 10:36:34;;;;;;;1.88;0.70;;;;;;;;;;5041642;28;20014;-66
2024/03/04 10:39:01;;;;;;;1.40;0.60;;;;;;;;;;5044670;28;20071;-66
2024/03/04 10:41:34;;;;;;;2.45;0.70;;;;;;;;;;5027123;28;20067;-67
2024/03/04 10:44:00;;;;;;;2.25;0.47;;;;;;;;;;5022873;28;20057;-67
2024/03/04 10:46:30;;;;;;;0.80;0.50;;;;;;;;;;5007146;28;20069;-66
2024/03/04 10:48:58;;;;;;;4.80;0.77;;;;;;;;;;5044931;28;20056;-66
2024/03/04 10:51:28;;;;;;;1.65;0.60;;;;;;;;;;5030598;28;20065;-67
2024/03/04 10:53:59;;;;;;;2.97;0.95;;;;;;;;;;5038397;28;20459;-67
2024/03/04 10:56:35;;;;;;;5.47;2.42;;;;;;;;;;5014650;28;20098;-67
2024/03/04 10:59:05;;;;;;;11.52;5.93;;;;;;;;;;5028734;28;20063;-67
2024/03/04 11:01:33;;;;;;;4.03;1.10;;;;;;;;;;5026687;28;20057;-66
2024/03/04 11:04:04;;;;;;;2.03;1.00;;;;;;;;;;5038836;28;20060;-68
2024/03/04 11:06:38;;;;;;;1.05;0.70;;;;;;;;;;5028185;28;20064;-67
2024/03/04 11:09:09;;;;;;;2.92;0.95;;;;;;;;;;5028033;28;20064;-66
2024/03/04 11:11:49;;;;;;;1.98;0.80;;;;;;;;;;5044778;28;20055;-67
2024/03/04 11:14:23;;;;;;;1.00;0.70;;;;;;;;;;5042559;28;20186;-67
2024/03/04 11:16:55;;;;;;;2.13;0.77;;;;;;;;;;5016284;28;20126;-67
2024/03/04 11:19:28;;;;;;;0.52;0.50;;;;;;;;;;5028214;28;20089;-67
2024/03/04 11:21:57;;;;;;;2.05;0.70;;;;;;;;;;5022542;28;20053;-67
2024/03/04 11:24:27;;;;;;;2.45;0.90;;;;;;;;;;5032491;28;20053;-67
2024/03/04 11:26:56;;;;;;;6.90;0.93;;;;;;;;;;5010176;28;20060;-67
2024/03/04 11:29:25;;;;;;;2.83;1.13;;;;;;;;;;5045398;28;20055;-67
2024/03/04 11:31:54;;;;;;;3.33;0.98;;;;;;;;;;5039235;28;20072;-67
2024/03/04 11:34:24;;;;;;;1.77;0.80;;;;;;;;;;5022580;28;20057;-67
2024/03/04 11:36:53;;;;;;;3.08;0.70;;;;;;;;;;5021054;28;20082;-67
2024/03/04 11:39:21;;;;;;;1.35;0.70;;;;;;;;;;5043322;28;20195;-67
2024/03/04 11:41:52;;;;;;;3.70;0.80;;;;;;;;;;5024134;28;20057;-67
2024/03/04 11:44:25;;;;;;;1.20;0.85;;;;;;;;;;5040548;28;20060;-66
2024/03/04 11:46:52;;;;;;;2.45;0.95;;;;;;;;;;5036900;28;20064;-67
2024/03/04 11:49:23;;;;;;;3.17;1.17;;;;;;;;;;5006828;28;20061;-66
2024/03/04 11:52:04;;;;;;;1.30;0.75;;;;;;;;;;5003258;28;20052;-67
2024/03/04 11:54:47;;;;;;;2.60;1.10;;;;;;;;;;5025237;28;20062;-67
2024/03/04 11:57:15;;;;;;;2.25;1.20;;;;;;;;;;5006652;28;20162;-66
2024/03/04 11:59:59;;;;;;;5.78;1.42;;;;;;;;;;5021885;28;20073;-66
2024/03/04 12:02:26;;;;;;;3.47;1.38;;;;;;;;;;5023279;28;20120;-66
2024/03/04 12:04:53;;;;;;;2.03;1.27;;;;;;;;;;5005956;28;20173;-66
2024/03/04 12:07:21;;;;;;;2.38;1.33;;;;;;;;;;5025377;28;20060;-67
2024/03/04 12:09:57;;;;;;;3.85;1.00;;;;;;;;;;5028155;28;20138;-67
2024/03/04 12:12:24;;;;;;;2.42;0.90;;;;;;;;;;5029932;28;20088;-67
2024/03/04 12:14:52;;;;;;;1.90;0.98;;;;;;;;;;5000636;28;20065;-66
2024/03/04 12:17:19;;;;;;;1.30;1.02;;;;;;;;;;5041014;28;20057;-67
2024/03/04 12:19:56;;;;;;;4.15;0.90;;;;;;;;;;5032833;28;20055;-66
2024/03/04 12:22:25;;;;;;;1.27;1.00;;;;;;;;;;5033236;28;20080;-66
2024/03/04 12:25:02;;;;;;;2.90;1.08;;;;;;;;;;5022136;28;20400;-68
2024/03/04 12:27:31;;;;;;;1.95;1.00;;;;;;;;;;5024490;28;20057;-66
2024/03/04 12:30:14;;;;;;;5.30;1.48;;;;;;;;;;5006143;28;20049;-66
2024/03/04 12:32:41;;;;;;;2.42;1.08;;;;;;;;;;5025823;28;20057;-66
2024/03/04 12:35:20;;;;;;;6.82;2.60;;;;;;;;;;4979559;28;20100;-67
2024/03/04 12:37:49;;;;;;;5.60;1.75;;;;;;;;;;5028696;28;20110;-65
2024/03/04 12:40:19;;;;;;;5.45;1.10;;;;;;;;;;5044602;28;20061;-66
2024/03/04 12:42:45;;;;;;;13.98;5.70;;;;;;;;;;5046769;28;20065;-67
2024/03/04 12:45:16;;;;;;;9.60;1.80;;;;;;;;;;5007837;28;20057;-66
2024/03/04 12:47:42;;;;;;;8.77;1.67;;;;;;;;;;5027866;28;20107;-68
2024/03/04 12:50:11;;;;;;;2.10;1.20;;;;;;;;;;5029675;28;20640;-66
2024/03/04 12:52:39;;;;;;;6.13;1.83;;;;;;;;;;5047282;28;20147;-67
2024/03/04 12:55:13;;;;;;;4.50;1.88;;;;;;;;;;5043542;28;20064;-66
2024/03/04 12:57:41;;;;;;;6.43;2.25;;;;;;;;;;5027988;28;20072;-65
2024/03/04 13:00:14;;;;;;;6.10;2.90;;;;;;;;;;5027481;28;20067;-65
2024/03/04 13:02:43;;;;;;;6.30;2.13;;;;;;;;;;5027599;28;20057;-66
2024/03/04 13:05:19;;;;;;;2.45;1.27;;;;;;;;;;4988386;28;20056;-66
2024/03/04 13:07:50;;;;;;;1.98;1.30;;;;;;;;;;5010951;28;20053;-66
2024/03/04 13:10:17;;;;;;;2.88;1.52;;;;;;;;;;5031115;28;20908;-66
2024/03/04 13:12:47;;;;;;;3.90;1.60;;;;;;;;;;5029697;28;20060;-66
2024/03/04 13:15:16;;;;;;;2.42;1.20;;;;;;;;;;5013913;28;20052;-66
2024/03/04 13:17:48;;;;;;;2.75;1.05;;;;;;;;;;5009513;28;20148;-65
2024/03/04 13:20:16;;;;;;;4.97;1.27;;;;;;;;;;5045350;28;20148;-66
2024/03/04 13:22:49;;;;;;;3.00;1.30;;;;;;;;;;5028414;28;20055;-66
2024/03/04 13:25:19;;;;;;;2.92;1.40;;;;;;;;;;5027824;28;20067;-66
2024/03/04 13:27:48;;;;;;;3.25;1.50;;;;;;;;;;5025874;28;20285;-65
2024/03/04 13:30:17;;;;;;;;;;;;;;;;;;5026371;28;20993;-65
2024/03/04 13:32:50;;;;;;;3.28;1.30;;;;;;;;;;5045661;28;19928;-66
2024/03/04 13:35:18;;;;;;;12.02;1.83;;;;;;;;;;4996817;28;20070;-66
2024/03/04 13:37:48;;;;;;;3.55;1.15;;;;;;;;;;5004301;28;20299;-67
2024/03/04 13:40:15;;;;;;;4.00;1.63;;;;;;;;;;5034225;28;20171;-66
2024/03/04 13:42:42;;;;;;;3.75;1.50;;;;;;;;;;5019510;28;20064;-65
2024/03/04 13:45:09;;;;;;;5.25;1.42;;;;;;;;;;5016689;28;20056;-67
2024/03/04 13:47:36;;;;;;;3.03;1.10;;;;;;;;;;5025524;28;20061;-65
2024/03/04 13:50:11;;;;;;;2.10;1.10;;;;;;;;;;5015442;28;20322;-65
2024/03/04 13:52:38;;;;;;;2.67;1.10;;;;;;;;;;5020662;28;20065;-66
2024/03/04 13:55:08;;;;;;;3.05;1.25;;;;;;;;;;5030318;28;20057;-66
2024/03/04 13:57:35;;;;;;;1.83;1.10;;;;;;;;;;5018734;28;20080;-66
2024/03/04 14:02:43;;;;;;;2.83;1.60;;;;;;;;;;5026687;28;20049;-66
2024/03/04 14:05:14;;;;;;;6.97;2.88;;;;;;;;;;5028800;28;20067;-66
2024/03/04 14:07:44;;;;;;;4.32;1.77;;;;;;;;;;5026356;28;20052;-66
2024/03/04 14:10:15;;;;;;;3.15;1.38;;;;;;;;;;5030410;28;20061;-67
2024/03/04 14:12:42;;;;;;;3.40;1.45;;;;;;;;;;5032682;28;20048;-66
2024/03/04 14:15:15;;;;;;;3.78;1.58;;;;;;;;;;5028482;28;20063;-66
2024/03/04 14:17:41;;;;;;;4.43;1.80;;;;;;;;;;5026336;28;20197;-66
2024/03/04 14:20:10;;;;;;;3.20;1.30;;;;;;;;;;5042286;28;20122;-66
2024/03/04 14:22:38;;;;;;;4.20;1.50;;;;;;;;;;5030810;28;20060;-66
2024/03/04 14:25:11;;;;;;;3.35;1.38;;;;;;;;;;5017335;28;20091;-66
2024/03/04 14:27:42;;;;;;;3.65;1.50;;;;;;;;;;5011021;28;20144;-67
2024/03/04 14:30:13;;;;;;;2.65;1.40;;;;;;;;;;5005814;28;20045;-67
2024/03/04 14:32:41;;;;;;;2.75;1.40;;;;;;;;;;5024166;28;20126;-67
2024/03/04 14:35:11;;;;;;;4.97;1.50;;;;;;;;;;5008858;28;20057;-67
2024/03/04 14:37:45;;;;;;;6.43;1.48;;;;;;;;;;5039939;28;20147;-66
2024/03/04 14:40:15;;;;;;;3.17;1.30;;;;;;;;;;5044498;28;20056;-66
2024/03/04 14:42:43;;;;;;;3.40;1.25;;;;;;;;;;5043339;28;20069;-66
2024/03/04 14:45:11;;;;;;;3.43;1.50;;;;;;;;;;5032968;28;20140;-67
2024/03/04 14:47:38;;;;;;;10.65;2.05;;;;;;;;;;5019175;28;20322;-66
2024/03/04 14:50:09;;;;;;;3.65;1.80;;;;;;;;;;5039304;28;20211;-69
2024/03/04 14:52:43;;;;;;;14.43;6.75;;;;;;;;;;5043293;27;20087;-66